createdAt,value
2023-04-09T00:00:15.351Z,5.50
2023-04-09T00:02:17.014Z,5.50
2023-04-09T00:04:18.693Z,5.40
2023-04-09T00:06:20.306Z,5.40
2023-04-09T00:08:23.883Z,5.40
2023-04-09T00:10:25.951Z,5.40
2023-04-09T00:12:27.701Z,5.30
2023-04-09T00:14:29.352Z,5.40
2023-04-09T00:16:31.159Z,5.30
2023-04-09T00:18:32.844Z,5.40
2023-04-09T00:20:34.520Z,5.30
2023-04-09T00:22:36.453Z,5.40
2023-04-09T00:24:38.111Z,5.30
2023-04-09T00:26:39.899Z,5.30
2023-04-09T00:28:41.561Z,5.30
2023-04-09T00:30:43.238Z,5.30
2023-04-09T00:32:44.933Z,5.30
2023-04-09T00:34:46.636Z,5.30
2023-04-09T00:36:48.259Z,5.30
2023-04-09T00:38:51.121Z,5.30
2023-04-09T00:40:52.967Z,5.30
2023-04-09T00:42:54.618Z,5.30
2023-04-09T00:44:56.236Z,5.30
2023-04-09T00:47:00.058Z,5.30
2023-04-09T00:49:01.798Z,5.30
2023-04-09T00:51:03.607Z,5.30
2023-04-09T00:53:05.795Z,5.40
2023-04-09T00:55:09.554Z,5.40
2023-04-09T00:57:12.340Z,5.40
2023-04-09T00:59:14.685Z,5.40
2023-04-09T01:01:16.523Z,5.40
2023-04-09T01:03:18.503Z,5.40
2023-04-09T01:05:20.339Z,5.40
2023-04-09T01:07:47.388Z,5.30
2023-04-09T01:10:11.528Z,5.30
2023-04-09T01:12:34.655Z,5.30
2023-04-09T01:14:57.411Z,5.20
2023-04-09T01:17:06.594Z,5.10
2023-04-09T01:19:30.203Z,5.10
2023-04-09T01:21:34.267Z,5.10
2023-04-09T01:24:00.066Z,5.10
2023-04-09T01:26:19.517Z,5.10
2023-04-09T01:28:31.962Z,5.10
2023-04-09T01:30:34.305Z,5.10
2023-04-09T01:32:38.978Z,5.10
2023-04-09T01:34:42.592Z,5.00
2023-04-09T01:36:48.975Z,5.00
2023-04-09T01:38:52.401Z,5.00
2023-04-09T01:40:56.510Z,5.00
2023-04-09T01:42:59.409Z,5.00
2023-04-09T01:45:02.550Z,5.00
2023-04-09T01:47:04.603Z,5.00
2023-04-09T01:49:06.661Z,5.00
2023-04-09T01:51:08.453Z,5.00
2023-04-09T01:53:10.449Z,5.00
2023-04-09T01:55:12.180Z,5.00
2023-04-09T01:57:13.900Z,5.00
2023-04-09T01:59:16.122Z,5.00
2023-04-09T02:01:35.869Z,5.00
2023-04-09T02:03:47.171Z,5.00
2023-04-09T02:06:01.071Z,5.00
2023-04-09T02:08:06.080Z,5.00
2023-04-09T02:10:10.073Z,5.00
2023-04-09T02:12:14.752Z,5.00
2023-04-09T02:14:17.036Z,5.00
2023-04-09T02:16:19.440Z,5.00
2023-04-09T02:18:27.233Z,5.00
2023-04-09T02:20:29.051Z,5.00
2023-04-09T02:22:31.014Z,5.00
2023-04-09T02:24:32.732Z,5.00
2023-04-09T02:26:34.479Z,5.00
2023-04-09T02:28:36.180Z,5.00
2023-04-09T02:30:37.945Z,5.10
2023-04-09T02:32:39.700Z,5.10
2023-04-09T02:34:41.359Z,5.10
2023-04-09T02:36:43.011Z,5.10
2023-04-09T02:38:44.630Z,5.00
2023-04-09T02:40:46.283Z,5.00
2023-04-09T02:42:47.999Z,5.00
2023-04-09T02:44:49.863Z,5.00
2023-04-09T02:46:54.337Z,5.00
2023-04-09T02:48:55.996Z,5.00
2023-04-09T02:50:57.651Z,5.00
2023-04-09T02:52:59.327Z,5.00
2023-04-09T02:55:01.029Z,5.00
2023-04-09T02:57:02.726Z,5.00
2023-04-09T02:59:04.373Z,5.00
2023-04-09T03:01:06.205Z,5.00
2023-04-09T03:03:08.128Z,4.90
2023-04-09T03:05:09.880Z,4.90
2023-04-09T03:07:11.541Z,4.90
2023-04-09T03:09:13.178Z,4.90
2023-04-09T03:11:15.939Z,4.90
2023-04-09T03:13:17.679Z,4.90
2023-04-09T03:15:19.480Z,4.90
2023-04-09T03:17:21.164Z,4.80
2023-04-09T03:19:22.807Z,4.80
2023-04-09T03:21:24.550Z,4.80
2023-04-09T03:23:26.229Z,4.80
2023-04-09T03:25:27.884Z,4.80
2023-04-09T03:27:29.969Z,4.70
2023-04-09T03:29:31.672Z,4.70
2023-04-09T03:31:33.818Z,4.70
2023-04-09T03:33:35.710Z,4.70
2023-04-09T03:35:37.349Z,4.70
2023-04-09T03:37:39.031Z,4.70
2023-04-09T03:39:40.808Z,4.70
2023-04-09T03:41:42.578Z,4.70
2023-04-09T03:43:44.301Z,4.70
2023-04-09T03:45:46.111Z,4.70
2023-04-09T03:47:47.824Z,4.70
2023-04-09T03:49:49.483Z,4.70
2023-04-09T03:51:51.161Z,4.70
2023-04-09T03:53:52.855Z,4.70
2023-04-09T03:55:54.472Z,4.80
2023-04-09T03:57:56.098Z,4.70
2023-04-09T03:59:57.750Z,4.70
2023-04-09T04:01:59.504Z,4.70
2023-04-09T04:04:01.369Z,4.70
2023-04-09T04:06:03.975Z,4.70
2023-04-09T04:08:05.878Z,4.70
2023-04-09T04:10:08.165Z,4.70
2023-04-09T04:12:09.921Z,4.70
2023-04-09T04:14:11.556Z,4.80
2023-04-09T04:16:13.261Z,4.70
2023-04-09T04:18:14.938Z,4.80
2023-04-09T04:20:16.985Z,4.80
2023-04-09T04:22:18.634Z,4.80
2023-04-09T04:24:20.364Z,4.90
2023-04-09T04:26:22.021Z,4.80
2023-04-09T04:28:24.002Z,4.80
2023-04-09T04:30:25.744Z,4.70
2023-04-09T04:32:27.630Z,4.70
2023-04-09T04:34:29.356Z,4.70
2023-04-09T04:36:31.039Z,4.70
2023-04-09T04:38:33.068Z,4.60
2023-04-09T04:40:35.394Z,4.60
2023-04-09T04:42:37.073Z,4.60
2023-04-09T04:44:38.776Z,4.60
2023-04-09T04:46:40.511Z,4.60
2023-04-09T04:48:42.218Z,4.60
2023-04-09T04:50:43.964Z,4.60
2023-04-09T04:52:45.712Z,4.60
2023-04-09T04:54:47.384Z,4.60
2023-04-09T04:56:49.066Z,4.60
2023-04-09T04:58:50.993Z,4.60
2023-04-09T05:00:52.913Z,4.60
2023-04-09T05:02:54.661Z,4.70
2023-04-09T05:04:56.503Z,4.70
2023-04-09T05:06:58.154Z,4.80
2023-04-09T05:09:01.357Z,4.80
2023-04-09T05:11:03.094Z,4.80
2023-04-09T05:13:04.744Z,4.90
2023-04-09T05:15:06.965Z,4.90
2023-04-09T05:17:08.637Z,5.00
2023-04-09T05:19:10.564Z,5.10
2023-04-09T05:21:12.464Z,5.20
2023-04-09T05:23:14.088Z,5.20
2023-04-09T05:25:16.340Z,5.30
2023-04-09T05:27:19.504Z,5.40
2023-04-09T05:29:21.277Z,5.50
2023-04-09T05:31:23.141Z,5.60
2023-04-09T05:33:24.828Z,5.70
2023-04-09T05:35:26.543Z,5.80
2023-04-09T05:37:28.322Z,5.90
2023-04-09T05:39:30.225Z,6.10
2023-04-09T05:41:33.490Z,6.20
2023-04-09T05:43:35.291Z,6.30
2023-04-09T05:45:37.130Z,6.30
2023-04-09T05:47:38.915Z,6.30
2023-04-09T05:49:40.638Z,6.30
2023-04-09T05:51:43.353Z,6.20
2023-04-09T05:53:44.986Z,6.20
2023-04-09T05:55:49.345Z,6.10
2023-04-09T05:57:53.117Z,6.00
2023-04-09T05:59:54.815Z,5.90
2023-04-09T06:01:56.478Z,5.90
2023-04-09T06:03:58.648Z,5.80
2023-04-09T06:06:00.760Z,5.80
2023-04-09T06:08:02.560Z,5.80
2023-04-09T06:10:04.595Z,5.80
2023-04-09T06:12:06.240Z,5.80
2023-04-09T06:14:07.924Z,5.80
2023-04-09T06:16:10.472Z,5.90
2023-04-09T06:18:12.239Z,5.90
2023-04-09T06:20:14.009Z,6.00
2023-04-09T06:22:15.663Z,6.00
2023-04-09T06:24:17.441Z,6.00
2023-04-09T06:26:19.065Z,6.00
2023-04-09T06:28:21.423Z,6.10
2023-04-09T06:30:23.107Z,6.10
2023-04-09T06:32:24.860Z,6.30
2023-04-09T06:34:26.647Z,6.50
2023-04-09T06:36:28.371Z,7.10
2023-04-09T06:38:30.201Z,8.30
2023-04-09T06:40:32.394Z,9.70
2023-04-09T06:42:34.214Z,10.80
2023-04-09T06:44:36.057Z,12.10
2023-04-09T06:46:37.922Z,13.10
2023-04-09T06:48:39.907Z,13.50
2023-04-09T06:50:41.583Z,13.70
2023-04-09T06:52:43.517Z,14.10
2023-04-09T06:54:46.147Z,14.40
2023-04-09T06:56:47.820Z,14.40
2023-04-09T06:58:49.471Z,14.70
2023-04-09T07:00:51.256Z,14.80
2023-04-09T07:02:54.188Z,15.10
2023-04-09T07:04:56.010Z,15.20
2023-04-09T07:06:59.291Z,15.40
2023-04-09T07:09:01.302Z,15.60
2023-04-09T07:11:03.478Z,15.70
2023-04-09T07:13:05.390Z,15.90
2023-04-09T07:15:07.880Z,16.20
2023-04-09T07:17:09.549Z,16.10
2023-04-09T07:19:11.298Z,16.30
2023-04-09T07:21:12.988Z,16.50
2023-04-09T07:23:14.644Z,16.50
2023-04-09T07:25:16.729Z,16.50
2023-04-09T07:27:18.649Z,16.40
2023-04-09T07:29:20.819Z,16.50
2023-04-09T07:31:22.553Z,16.30
2023-04-09T07:33:24.362Z,16.60
2023-04-09T07:35:26.516Z,16.40
2023-04-09T07:37:28.233Z,16.00
2023-04-09T07:39:29.980Z,15.90
2023-04-09T07:41:31.645Z,18.30
2023-04-09T07:43:33.314Z,16.40
2023-04-09T07:45:35.077Z,16.60
2023-04-09T07:47:37.877Z,16.70
2023-04-09T07:49:40.054Z,16.80
2023-04-09T07:51:41.890Z,16.10
2023-04-09T07:53:43.567Z,15.50
2023-04-09T07:55:45.312Z,15.40
2023-04-09T07:57:48.346Z,15.80
2023-04-09T07:59:50.160Z,15.20
2023-04-09T08:01:52.009Z,15.00
2023-04-09T08:03:54.051Z,15.50
2023-04-09T08:05:56.347Z,15.90
2023-04-09T08:07:58.169Z,18.20
2023-04-09T08:10:00.036Z,15.70
2023-04-09T08:12:01.905Z,15.50
2023-04-09T08:14:04.673Z,15.40
2023-04-09T08:16:06.640Z,15.30
2023-04-09T08:18:08.562Z,15.80
2023-04-09T08:20:11.153Z,16.40
2023-04-09T08:22:12.858Z,17.00
2023-04-09T08:24:15.694Z,17.10
2023-04-09T08:26:17.350Z,17.90
2023-04-09T08:28:19.054Z,18.10
2023-04-09T08:30:21.368Z,18.70
2023-04-09T08:32:23.172Z,18.40
2023-04-09T08:34:25.210Z,18.90
2023-04-09T08:36:27.671Z,19.40
2023-04-09T08:38:29.361Z,19.70
2023-04-09T08:40:35.659Z,19.40
2023-04-09T08:42:44.068Z,18.10
2023-04-09T08:44:46.417Z,17.30
2023-04-09T08:46:48.322Z,16.60
2023-04-09T08:48:51.924Z,17.00
2023-04-09T08:50:53.832Z,17.70
2023-04-09T08:52:57.197Z,18.20
2023-04-09T08:54:59.035Z,18.60
2023-04-09T08:57:05.269Z,18.00
2023-04-09T08:59:07.046Z,17.00
2023-04-09T09:01:18.871Z,16.80
2023-04-09T09:03:20.841Z,16.90
2023-04-09T09:05:36.993Z,16.80
2023-04-09T09:07:53.757Z,16.30
2023-04-09T09:09:58.094Z,16.60
2023-04-09T09:11:59.891Z,17.60
2023-04-09T09:14:03.925Z,18.10
2023-04-09T09:16:14.561Z,18.20
2023-04-09T09:18:18.369Z,17.50
2023-04-09T09:20:21.142Z,16.90
2023-04-09T09:22:22.896Z,17.00
2023-04-09T09:24:24.707Z,16.80
2023-04-09T09:26:30.727Z,16.70
2023-04-09T09:28:36.466Z,17.10
2023-04-09T09:30:40.842Z,16.80
2023-04-09T09:32:43.585Z,17.00
2023-04-09T09:34:58.555Z,17.10
2023-04-09T09:37:00.273Z,15.70
2023-04-09T09:39:10.235Z,15.10
2023-04-09T09:41:21.351Z,14.90
2023-04-09T09:43:23.073Z,14.70
2023-04-09T09:45:25.712Z,14.30
2023-04-09T09:47:29.584Z,14.20
2023-04-09T09:49:31.254Z,15.30
2023-04-09T09:51:36.922Z,16.40
2023-04-09T09:53:40.132Z,17.10
2023-04-09T09:55:46.440Z,17.70
2023-04-09T09:57:50.892Z,18.40
2023-04-09T10:00:03.701Z,18.40
2023-04-09T10:02:07.708Z,18.60
2023-04-09T10:04:13.769Z,18.80
2023-04-09T10:06:15.786Z,18.90
2023-04-09T10:08:18.042Z,18.80
2023-04-09T10:10:19.992Z,18.50
2023-04-09T10:12:26.218Z,18.60
2023-04-09T10:14:29.421Z,18.70
2023-04-09T10:16:31.689Z,18.80
2023-04-09T10:18:34.685Z,18.90
2023-04-09T10:20:50.905Z,18.30
2023-04-09T10:22:53.504Z,16.50
2023-04-09T10:24:55.794Z,13.90
2023-04-09T10:27:16.016Z,13.70
2023-04-09T10:29:26.791Z,14.20
2023-04-09T10:31:28.530Z,15.40
2023-04-09T10:33:30.264Z,15.60
2023-04-09T10:35:32.032Z,15.20
2023-04-09T10:37:35.883Z,14.30
2023-04-09T10:39:44.514Z,14.40
2023-04-09T10:41:48.941Z,14.80
2023-04-09T10:43:51.034Z,14.30
2023-04-09T10:45:54.215Z,13.80
2023-04-09T10:47:55.993Z,13.70
2023-04-09T10:49:57.632Z,13.70
2023-04-09T10:52:04.643Z,14.00
2023-04-09T10:54:07.174Z,14.80
2023-04-09T10:56:16.967Z,15.80
2023-04-09T10:58:19.435Z,16.20
2023-04-09T11:00:21.272Z,17.20
2023-04-09T11:02:41.097Z,17.80
2023-04-09T11:05:16.652Z,17.60
2023-04-09T11:07:22.221Z,18.00
2023-04-09T11:09:23.959Z,17.20
2023-04-09T11:11:29.232Z,16.60
2023-04-09T11:13:32.252Z,16.30
2023-04-09T11:15:36.703Z,15.30
2023-04-09T11:17:38.420Z,15.80
2023-04-09T11:19:40.185Z,15.90
2023-04-09T11:21:46.373Z,16.10
2023-04-09T11:23:55.212Z,16.60
2023-04-09T11:25:57.232Z,17.30
2023-04-09T11:27:59.967Z,17.00
2023-04-09T11:30:01.678Z,16.60
2023-04-09T11:32:05.217Z,17.00
2023-04-09T11:34:12.140Z,17.60
2023-04-09T11:36:13.809Z,17.70
2023-04-09T11:38:15.939Z,18.00
2023-04-09T11:40:22.834Z,17.60
2023-04-09T11:42:25.800Z,17.30
2023-04-09T11:44:27.547Z,17.30
2023-04-09T11:46:30.048Z,17.00
2023-04-09T11:48:31.824Z,16.50
2023-04-09T11:50:33.884Z,15.00
2023-04-09T11:52:36.046Z,14.60
2023-04-09T11:54:37.724Z,14.50
2023-04-09T11:56:39.399Z,14.80
2023-04-09T11:58:47.221Z,15.20
2023-04-09T12:00:48.994Z,15.60
2023-04-09T12:03:00.925Z,15.90
2023-04-09T12:05:04.601Z,16.00
2023-04-09T12:07:09.655Z,15.90
2023-04-09T12:09:14.111Z,15.70
2023-04-09T12:11:16.286Z,15.60
2023-04-09T12:13:17.962Z,15.90
2023-04-09T12:15:21.629Z,16.30
2023-04-09T12:17:23.382Z,16.80
2023-04-09T12:19:25.867Z,17.00
2023-04-09T12:21:49.057Z,16.60
2023-04-09T12:23:50.700Z,16.50
2023-04-09T12:25:53.055Z,16.20
2023-04-09T12:27:56.481Z,16.10
2023-04-09T12:29:58.126Z,16.20
2023-04-09T12:32:00.254Z,16.20
2023-04-09T12:34:01.989Z,16.40
2023-04-09T12:36:03.857Z,16.70
2023-04-09T12:38:06.064Z,16.30
2023-04-09T12:40:08.432Z,15.80
2023-04-09T12:42:10.467Z,15.70
2023-04-09T12:44:12.210Z,15.50
2023-04-09T12:46:14.125Z,15.30
2023-04-09T12:48:16.067Z,15.10
2023-04-09T12:50:17.842Z,14.90
2023-04-09T12:52:19.517Z,14.90
2023-04-09T12:54:21.333Z,14.90
2023-04-09T12:56:23.009Z,14.70
2023-04-09T12:58:24.773Z,14.40
2023-04-09T13:00:30.788Z,14.00
2023-04-09T13:02:32.715Z,13.40
2023-04-09T13:04:34.612Z,13.40
2023-04-09T13:06:36.582Z,13.70
2023-04-09T13:08:38.555Z,13.90
2023-04-09T13:10:40.346Z,13.90
2023-04-09T13:12:42.093Z,13.40
2023-04-09T13:14:46.671Z,13.40
2023-04-09T13:16:49.959Z,14.40
2023-04-09T13:18:52.213Z,15.70
2023-04-09T13:20:54.028Z,16.50
2023-04-09T13:22:56.003Z,16.90
2023-04-09T13:24:57.788Z,17.50
2023-04-09T13:26:59.391Z,17.40
2023-04-09T13:29:01.739Z,16.50
2023-04-09T13:31:03.764Z,16.00
2023-04-09T13:33:05.552Z,15.50
2023-04-09T13:35:07.983Z,14.90
2023-04-09T13:37:09.606Z,14.40
2023-04-09T13:39:11.337Z,13.90
2023-04-09T13:41:13.691Z,13.50
2023-04-09T13:43:15.657Z,13.40
2023-04-09T13:45:18.093Z,13.40
2023-04-09T13:47:19.907Z,13.90
2023-04-09T13:49:21.945Z,13.90
2023-04-09T13:51:24.132Z,13.50
2023-04-09T13:53:26.074Z,13.20
2023-04-09T13:55:27.764Z,12.80
2023-04-09T13:57:29.474Z,12.50
2023-04-09T13:59:31.392Z,12.40
2023-04-09T14:01:33.922Z,12.80
2023-04-09T14:03:37.917Z,14.00
2023-04-09T14:05:39.884Z,15.40
2023-04-09T14:07:41.610Z,16.40
2023-04-09T14:09:44.012Z,17.50
2023-04-09T14:11:45.689Z,17.70
2023-04-09T14:13:48.554Z,18.00
2023-04-09T14:15:50.302Z,17.80
2023-04-09T14:17:52.019Z,17.30
2023-04-09T14:19:53.725Z,16.60
2023-04-09T14:21:55.640Z,15.90
2023-04-09T14:23:57.538Z,17.10
2023-04-09T14:25:59.183Z,14.70
2023-04-09T14:28:00.996Z,14.80
2023-04-09T14:30:03.647Z,15.00
2023-04-09T14:32:05.435Z,15.30
2023-04-09T14:34:07.098Z,15.20
2023-04-09T14:36:09.005Z,15.20
2023-04-09T14:38:10.787Z,14.70
2023-04-09T14:40:12.882Z,14.20
2023-04-09T14:42:14.529Z,14.00
2023-04-09T14:44:16.268Z,13.90
2023-04-09T14:46:17.976Z,14.00
2023-04-09T14:48:19.906Z,14.50
2023-04-09T14:50:21.674Z,15.10
2023-04-09T14:52:23.440Z,15.50
2023-04-09T14:54:25.147Z,15.60
2023-04-09T14:56:27.082Z,15.10
2023-04-09T14:58:28.804Z,14.50
2023-04-09T15:00:31.523Z,14.10
2023-04-09T15:02:35.232Z,13.60
2023-04-09T15:04:37.266Z,13.20
2023-04-09T15:06:39.063Z,12.80
2023-04-09T15:08:41.092Z,12.60
2023-04-09T15:10:42.732Z,12.40
2023-04-09T15:12:44.360Z,12.50
2023-04-09T15:14:46.097Z,12.90
2023-04-09T15:16:47.897Z,13.50
2023-04-09T15:18:52.040Z,13.80
2023-04-09T15:20:54.198Z,14.20
2023-04-09T15:22:55.858Z,14.70
2023-04-09T15:24:57.549Z,14.90
2023-04-09T15:26:59.259Z,14.60
2023-04-09T15:29:04.066Z,14.40
2023-04-09T15:31:06.057Z,14.60
2023-04-09T15:33:07.723Z,14.80
2023-04-09T15:35:09.593Z,15.20
2023-04-09T15:37:11.333Z,15.60
2023-04-09T15:39:12.988Z,15.70
2023-04-09T15:41:16.968Z,15.40
2023-04-09T15:43:18.681Z,15.20
2023-04-09T15:45:20.595Z,15.00
2023-04-09T15:47:22.280Z,15.00
2023-04-09T15:49:24.054Z,14.70
2023-04-09T15:51:26.730Z,14.00
2023-04-09T15:53:29.136Z,13.60
2023-04-09T15:55:31.591Z,13.40
2023-04-09T15:57:33.344Z,13.40
2023-04-09T15:59:34.983Z,13.40
2023-04-09T16:01:36.956Z,13.30
2023-04-09T16:03:41.850Z,13.30
2023-04-09T16:05:43.604Z,13.20
2023-04-09T16:07:45.256Z,13.30
2023-04-09T16:09:47.079Z,13.50
2023-04-09T16:11:48.860Z,13.70
2023-04-09T16:13:50.589Z,13.90
2023-04-09T16:15:52.303Z,14.00
2023-04-09T16:17:54.000Z,14.10
2023-04-09T16:19:56.422Z,14.10
2023-04-09T16:21:58.143Z,13.90
2023-04-09T16:24:00.814Z,13.60
2023-04-09T16:26:02.548Z,13.60
2023-04-09T16:28:04.537Z,13.40
2023-04-09T16:30:07.025Z,13.10
2023-04-09T16:32:08.901Z,13.00
2023-04-09T16:34:10.695Z,12.80
2023-04-09T16:36:12.748Z,12.70
2023-04-09T16:38:14.600Z,12.70
2023-04-09T16:40:18.377Z,12.70
2023-04-09T16:42:20.546Z,12.90
2023-04-09T16:44:22.213Z,12.80
2023-04-09T16:46:24.076Z,12.70
2023-04-09T16:48:26.148Z,12.70
2023-04-09T16:50:27.915Z,12.60
2023-04-09T16:52:30.026Z,12.40
2023-04-09T16:54:31.640Z,12.40
2023-04-09T16:56:33.390Z,12.30
2023-04-09T16:58:35.158Z,12.30
2023-04-09T17:00:37.088Z,12.30
2023-04-09T17:02:39.315Z,12.30
2023-04-09T17:04:41.744Z,12.40
2023-04-09T17:06:43.658Z,12.30
2023-04-09T17:08:45.778Z,12.30
2023-04-09T17:10:47.505Z,12.10
2023-04-09T17:12:50.459Z,12.00
2023-04-09T17:14:52.134Z,12.00
2023-04-09T17:16:54.131Z,12.00
2023-04-09T17:18:55.989Z,12.00
2023-04-09T17:20:59.212Z,12.10
2023-04-09T17:23:00.890Z,12.20
2023-04-09T17:25:03.048Z,12.20
2023-04-09T17:27:04.841Z,12.20
2023-04-09T17:29:06.584Z,12.20
2023-04-09T17:31:15.734Z,12.20
2023-04-09T17:33:17.543Z,12.00
2023-04-09T17:35:19.209Z,11.90
2023-04-09T17:37:21.146Z,11.80
2023-04-09T17:39:26.692Z,11.60
2023-04-09T17:41:28.553Z,11.40
2023-04-09T17:43:30.662Z,11.10
2023-04-09T17:45:32.285Z,10.80
2023-04-09T17:47:34.200Z,10.60
2023-04-09T17:49:36.206Z,10.50
2023-04-09T17:51:37.977Z,10.30
2023-04-09T17:53:39.657Z,10.20
2023-04-09T17:55:47.522Z,10.10
2023-04-09T17:57:49.282Z,9.90
2023-04-09T17:59:51.021Z,9.80
2023-04-09T18:01:54.965Z,9.70
2023-04-09T18:03:57.015Z,9.60
2023-04-09T18:06:00.570Z,9.50
2023-04-09T18:08:02.454Z,9.40
2023-04-09T18:10:04.836Z,9.30
2023-04-09T18:12:06.832Z,9.30
2023-04-09T18:14:09.263Z,9.20
2023-04-09T18:16:12.451Z,9.10
2023-04-09T18:18:14.441Z,9.10
2023-04-09T18:20:16.215Z,9.00
2023-04-09T18:22:17.896Z,8.90
2023-04-09T18:24:19.532Z,8.80
2023-04-09T18:26:21.254Z,8.80
2023-04-09T18:28:22.929Z,8.70
2023-04-09T18:30:26.239Z,8.50
2023-04-09T18:32:28.057Z,8.50
2023-04-09T18:34:29.857Z,8.50
2023-04-09T18:36:31.491Z,8.50
2023-04-09T18:38:33.245Z,8.40
2023-04-09T18:40:42.853Z,8.30
2023-04-09T18:42:44.647Z,8.30
2023-04-09T18:44:46.528Z,8.20
2023-04-09T18:46:48.294Z,8.20
2023-04-09T18:48:49.966Z,8.20
2023-04-09T18:50:52.048Z,8.20
2023-04-09T18:52:53.798Z,8.20
2023-04-09T18:54:55.701Z,8.20
2023-04-09T18:56:57.489Z,8.20
2023-04-09T18:58:59.265Z,8.20
2023-04-09T19:01:01.390Z,8.20
2023-04-09T19:03:03.389Z,8.10
2023-04-09T19:05:07.274Z,8.10
2023-04-09T19:07:09.273Z,8.10
2023-04-09T19:09:11.145Z,8.10
2023-04-09T19:11:13.399Z,8.20
2023-04-09T19:13:15.387Z,8.20
2023-04-09T19:15:17.513Z,8.10
2023-04-09T19:17:19.473Z,8.10
2023-04-09T19:19:21.258Z,8.10
2023-04-09T19:21:23.540Z,8.00
2023-04-09T19:23:25.874Z,8.00
2023-04-09T19:25:28.687Z,8.00
2023-04-09T19:27:30.352Z,8.00
2023-04-09T19:29:32.230Z,8.00
2023-04-09T19:31:33.919Z,8.00
2023-04-09T19:33:36.181Z,8.00
2023-04-09T19:35:40.608Z,8.00
2023-04-09T19:37:42.532Z,7.90
2023-04-09T19:39:44.201Z,7.90
2023-04-09T19:41:46.106Z,7.80
2023-04-09T19:43:47.823Z,7.80
2023-04-09T19:45:49.500Z,7.80
2023-04-09T19:47:52.478Z,7.80
2023-04-09T19:49:54.998Z,7.80
2023-04-09T19:51:56.700Z,7.80
2023-04-09T19:53:58.351Z,7.80
2023-04-09T19:56:00.059Z,7.70
2023-04-09T19:58:02.094Z,7.60
2023-04-09T20:00:05.121Z,7.60
2023-04-09T20:02:07.500Z,7.60
2023-04-09T20:04:09.319Z,7.50
2023-04-09T20:06:11.072Z,7.60
2023-04-09T20:08:15.732Z,7.50
2023-04-09T20:10:17.966Z,7.50
2023-04-09T20:12:21.711Z,7.50
2023-04-09T20:14:23.328Z,7.50
2023-04-09T20:16:25.008Z,7.40
2023-04-09T20:18:26.821Z,7.40
2023-04-09T20:20:28.721Z,7.30
2023-04-09T20:22:30.928Z,7.30
2023-04-09T20:24:33.903Z,7.40
2023-04-09T20:26:35.615Z,7.40
2023-04-09T20:28:37.293Z,7.40
2023-04-09T20:30:38.997Z,7.30
2023-04-09T20:32:41.298Z,7.30
2023-04-09T20:34:43.493Z,7.30
2023-04-09T20:36:47.561Z,7.30
2023-04-09T20:38:49.316Z,7.40
2023-04-09T20:40:52.698Z,7.40
2023-04-09T20:42:54.426Z,7.30
2023-04-09T20:44:56.517Z,7.30
2023-04-09T20:46:58.163Z,7.20
2023-04-09T20:49:00.734Z,7.20
2023-04-09T20:51:09.266Z,7.20
2023-04-09T20:53:11.855Z,7.10
2023-04-09T20:55:14.259Z,7.10
2023-04-09T20:57:15.937Z,7.10
2023-04-09T20:59:19.293Z,7.10
2023-04-09T21:01:21.940Z,7.00
2023-04-09T21:03:23.901Z,7.00
2023-04-09T21:05:25.762Z,7.00
2023-04-09T21:07:27.465Z,6.90
2023-04-09T21:09:29.503Z,6.90
2023-04-09T21:11:31.175Z,6.80
2023-04-09T21:13:40.517Z,6.70
2023-04-09T21:15:52.733Z,6.70
2023-04-09T21:17:54.451Z,6.70
2023-04-09T21:19:56.642Z,6.60
2023-04-09T21:21:58.388Z,6.60
2023-04-09T21:24:00.174Z,6.60
2023-04-09T21:26:04.573Z,6.60
2023-04-09T21:28:06.890Z,6.60
2023-04-09T21:30:08.931Z,6.50
2023-04-09T21:32:10.614Z,6.50
2023-04-09T21:34:12.335Z,6.50
2023-04-09T21:36:14.095Z,6.50
2023-04-09T21:38:16.485Z,6.70
2023-04-09T21:40:18.141Z,6.60
2023-04-09T21:42:19.799Z,6.50
2023-04-09T21:44:21.418Z,6.60
2023-04-09T21:46:23.167Z,6.60
2023-04-09T21:48:26.375Z,6.60
2023-04-09T21:50:28.405Z,6.60
2023-04-09T21:52:30.214Z,6.70
2023-04-09T21:54:32.045Z,6.70
2023-04-09T21:56:34.547Z,6.70
2023-04-09T21:58:36.280Z,6.60
2023-04-09T22:00:38.162Z,6.60
2023-04-09T22:02:40.198Z,6.60
2023-04-09T22:04:42.891Z,6.60
2023-04-09T22:06:46.677Z,6.60
2023-04-09T22:08:55.426Z,6.60
2023-04-09T22:10:57.625Z,6.60
2023-04-09T22:12:59.262Z,6.60
2023-04-09T22:15:01.455Z,6.50
2023-04-09T22:17:03.393Z,6.50
2023-04-09T22:19:05.670Z,6.40
2023-04-09T22:21:07.341Z,6.40
2023-04-09T22:23:09.645Z,6.40
2023-04-09T22:25:11.953Z,6.40
2023-04-09T22:27:13.827Z,6.30
2023-04-09T22:29:15.779Z,6.30
2023-04-09T22:31:17.796Z,6.20
2023-04-09T22:33:19.476Z,6.10
2023-04-09T22:35:21.322Z,6.10
2023-04-09T22:37:22.985Z,6.10
2023-04-09T22:39:24.842Z,6.10
2023-04-09T22:41:27.232Z,6.00
2023-04-09T22:43:29.048Z,6.00
2023-04-09T22:45:32.326Z,6.00
2023-04-09T22:47:34.060Z,6.00
2023-04-09T22:49:35.723Z,6.00
2023-04-09T22:51:38.515Z,6.10
2023-04-09T22:53:41.646Z,6.00
2023-04-09T22:55:43.328Z,6.00
2023-04-09T22:57:44.985Z,6.00
2023-04-09T22:59:46.603Z,5.90
2023-04-09T23:01:48.603Z,6.00
2023-04-09T23:03:50.864Z,6.00
2023-04-09T23:05:52.617Z,6.00
2023-04-09T23:07:54.370Z,5.90
2023-04-09T23:09:56.227Z,5.90
2023-04-09T23:11:57.978Z,5.80
2023-04-09T23:13:59.634Z,5.80
2023-04-09T23:16:05.468Z,5.90
2023-04-09T23:18:07.188Z,5.80
2023-04-09T23:20:11.319Z,5.80
2023-04-09T23:22:12.999Z,5.80
2023-04-09T23:24:14.700Z,5.80
2023-04-09T23:26:16.670Z,5.80
2023-04-09T23:28:18.336Z,5.80
2023-04-09T23:30:21.656Z,5.80
2023-04-09T23:32:23.665Z,5.70
2023-04-09T23:34:25.502Z,5.70
2023-04-09T23:36:27.806Z,5.60
2023-04-09T23:38:29.474Z,5.60
2023-04-09T23:40:31.147Z,5.60
2023-04-09T23:42:33.939Z,5.60
2023-04-09T23:44:35.556Z,5.60
2023-04-09T23:46:37.913Z,5.50
2023-04-09T23:48:40.398Z,5.50
2023-04-09T23:50:42.488Z,5.50
2023-04-09T23:52:48.656Z,5.60
2023-04-09T23:54:54.063Z,5.50
2023-04-09T23:56:57.733Z,5.30
2023-04-09T23:58:59.460Z,5.50
